Time;durP1;ratioP1;P1;durP2;ratioP2;P2;SDS_P1;SDS_P2;PMS_P1;PMS_P2;Temp;Humidity;BMP_temperature;BMP_pressure;BME280_temperature;BME280_humidity;BME280_pressure;Samples;Min_cycle;Max_cycle;Signal;HPM_P1;HPM_P2
2023/05/16 00:00:52;;;;;;;10.02;1.85;;;;;;;8.77;81.07;102072.28;5028374;28;20052;-74
2023/05/16 00:03:18;;;;;;;13.05;2.25;;;;;;;8.75;80.75;102081.03;5039191;28;20053;-74
2023/05/16 00:05:43;;;;;;;12.07;1.60;;;;;;;8.76;81.45;102072.31;5049083;28;20045;-74
2023/05/16 00:08:09;;;;;;;6.32;2.08;;;;;;;8.77;81.78;102081.88;5040773;28;20037;-74
2023/05/16 00:10:35;;;;;;;8.52;1.70;;;;;;;8.73;81.53;102073.22;5051227;28;20053;-74
2023/05/16 00:13:00;;;;;;;8.82;1.73;;;;;;;8.71;81.27;102071.50;5043632;28;20049;-74
2023/05/16 00:15:28;;;;;;;10.25;2.10;;;;;;;8.73;81.23;102072.34;5047887;28;20030;-74
2023/05/16 00:17:57;;;;;;;13.88;2.00;;;;;;;8.74;81.61;102076.69;5058516;28;20044;-74
2023/05/16 00:20:23;;;;;;;2.95;1.00;;;;;;;8.74;81.72;102081.91;5048822;28;20435;-74
2023/05/16 00:22:49;;;;;;;8.00;1.40;;;;;;;8.76;81.67;102082.75;5039245;28;20047;-74
2023/05/16 00:25:14;;;;;;;4.88;1.15;;;;;;;8.77;81.87;102076.66;5034149;28;20319;-74
2023/05/16 00:27:40;;;;;;;8.40;1.45;;;;;;;8.78;81.88;102073.16;5043972;28;20040;-74
2023/05/16 00:30:06;;;;;;;7.43;1.85;;;;;;;8.79;81.86;102080.97;5050262;28;20037;-74
2023/05/16 00:32:31;;;;;;;3.08;1.27;;;;;;;8.76;81.55;102075.78;5039927;28;20336;-74
2023/05/16 00:34:57;;;;;;;8.50;1.35;;;;;;;8.76;82.02;102080.16;5023453;28;20029;-74
2023/05/16 00:37:23;;;;;;;8.10;1.88;;;;;;;8.75;81.74;102068.84;5021006;28;20082;-74
2023/05/16 00:39:48;;;;;;;7.57;1.40;;;;;;;8.74;82.02;102076.69;5025979;28;20383;-74
2023/05/16 00:42:14;;;;;;;5.78;1.50;;;;;;;8.74;81.96;102077.56;5027470;28;20057;-74
2023/05/16 00:44:40;;;;;;;10.55;2.03;;;;;;;8.67;81.72;102082.88;5038311;28;20048;-74
2023/05/16 00:47:05;;;;;;;9.45;2.83;;;;;;;8.65;82.06;102073.31;5038785;28;20025;-74
2023/05/16 00:49:31;;;;;;;7.18;1.42;;;;;;;8.68;81.91;102085.47;5039020;28;20368;-74
2023/05/16 00:51:57;;;;;;;7.72;2.05;;;;;;;8.62;82.32;102080.31;5037941;28;20115;-74
2023/05/16 00:54:25;;;;;;;5.20;1.42;;;;;;;8.52;81.93;102081.34;5038981;28;20087;-74
2023/05/16 00:56:51;;;;;;;12.73;1.80;;;;;;;8.53;82.62;102083.94;5038054;28;20032;-74
2023/05/16 00:59:18;;;;;;;5.80;1.25;;;;;;;8.55;82.61;102082.16;5001166;28;20389;-74
2023/05/16 01:05:06;;;;;;;7.90;1.38;;;;;;;8.52;81.98;102079.56;5035730;28;20554;-74
2023/05/16 01:07:31;;;;;;;7.50;1.80;;;;;;;8.52;82.32;102082.19;5044666;28;20025;-74
2023/05/16 01:09:58;;;;;;;4.43;1.40;;;;;;;8.55;82.29;102087.38;5028433;28;20040;-74
2023/05/16 01:12:40;;;;;;;7.82;1.80;;;;;;;8.53;82.51;102076.09;5030486;28;20061;-74
2023/05/16 01:15:12;;;;;;;6.45;1.70;;;;;;;8.52;82.37;102079.56;5042237;28;20037;-74
2023/05/16 01:17:50;;;;;;;7.47;1.27;;;;;;;8.48;82.26;102084.84;5019997;28;20017;-74
2023/05/16 01:20:44;;;;;;;7.50;1.98;;;;;;;8.47;82.53;102083.13;5043311;28;20116;-74
2023/05/16 01:23:48;;;;;;;7.10;1.45;;;;;;;8.43;82.46;102079.69;5019880;28;20079;-74
2023/05/16 01:26:21;;;;;;;5.05;1.83;;;;;;;8.45;82.92;102085.75;5030536;28;20040;-74
2023/05/16 01:28:49;;;;;;;7.45;2.00;;;;;;;8.47;82.92;102083.13;5039072;28;20033;-73
2023/05/16 01:31:16;;;;;;;8.50;1.53;;;;;;;8.43;82.51;102082.31;5036994;28;20380;-74
2023/05/16 01:33:42;;;;;;;6.78;1.30;;;;;;;8.41;82.44;102084.03;5039141;28;20036;-74
2023/05/16 01:36:29;;;;;;;5.38;1.40;;;;;;;8.42;82.92;102078.84;5031113;28;20032;-74
2023/05/16 01:39:21;;;;;;;7.68;2.05;;;;;;;8.43;82.84;102084.91;5037065;28;20069;-74
2023/05/16 01:41:50;;;;;;;4.85;1.48;;;;;;;8.41;82.97;102081.44;5054340;28;20372;-74
2023/05/16 01:44:36;;;;;;;6.88;1.73;;;;;;;8.40;82.99;102085.78;5039640;28;20033;-74
2023/05/16 01:47:08;;;;;;;5.38;1.50;;;;;;;8.38;83.09;102084.91;5023689;28;20029;-74
2023/05/16 01:49:40;;;;;;;8.88;1.55;;;;;;;8.37;83.13;102079.75;5021172;28;20029;-74
2023/05/16 01:52:18;;;;;;;7.00;1.45;;;;;;;8.39;83.24;102088.41;5024391;28;20037;-74
2023/05/16 01:54:47;;;;;;;;;;;;;;;8.39;83.36;102081.44;5037007;28;20041;-74
2023/05/16 01:57:13;;;;;;;7.07;1.75;;;;;;;8.39;83.19;102089.28;5022306;28;20200;-74
2023/05/16 01:59:41;;;;;;;7.03;1.95;;;;;;;8.40;83.51;102092.72;5030836;28;20155;-74
2023/05/16 02:02:07;;;;;;;4.40;1.27;;;;;;;8.41;83.72;102086.66;5025010;28;20100;-74
2023/05/16 02:04:32;;;;;;;4.25;1.15;;;;;;;8.40;83.71;102097.97;5056968;28;20045;-73
2023/05/16 02:06:59;;;;;;;6.50;1.50;;;;;;;8.41;83.83;102097.09;5045990;28;20028;-74
2023/05/16 02:09:25;;;;;;;7.82;1.42;;;;;;;8.39;83.89;102098.84;5038991;28;20033;-74
2023/05/16 02:11:51;;;;;;;10.05;1.80;;;;;;;8.38;83.70;102102.34;5027527;28;20044;-74
2023/05/16 02:14:17;;;;;;;3.60;1.20;;;;;;;8.33;83.88;102101.50;5039103;28;20041;-74
2023/05/16 02:16:43;;;;;;;9.85;1.65;;;;;;;8.20;83.64;102095.56;5035922;28;20409;-74
2023/05/16 02:19:08;;;;;;;9.55;2.15;;;;;;;8.20;84.04;102096.41;5020037;28;20044;-74
2023/05/16 02:21:34;;;;;;;9.40;1.52;;;;;;;8.22;84.22;102094.69;5036682;28;20344;-74
2023/05/16 02:24:00;;;;;;;5.10;1.00;;;;;;;8.25;84.05;102093.78;5037382;28;20087;-74
2023/05/16 02:26:26;;;;;;;7.78;1.80;;;;;;;8.25;84.15;102102.47;5036082;28;20041;-74
2023/05/16 02:28:51;;;;;;;5.57;1.42;;;;;;;8.26;84.19;102096.38;5052552;28;20059;-73
2023/05/16 02:31:27;;;;;;;5.30;1.65;;;;;;;8.26;84.38;102104.22;5037560;28;20029;-74
2023/05/16 02:33:53;;;;;;;3.70;1.10;;;;;;;8.27;84.29;102105.06;5022633;28;20030;-74
2023/05/16 02:36:18;;;;;;;4.00;1.27;;;;;;;8.30;84.30;102106.78;5023612;28;20054;-74
2023/05/16 02:38:44;;;;;;;9.18;1.52;;;;;;;8.26;83.88;102103.34;5050488;28;20080;-74
2023/05/16 02:41:10;;;;;;;6.25;1.70;;;;;;;8.27;84.09;102102.44;5038590;28;20037;-74
2023/05/16 02:43:35;;;;;;;4.68;1.20;;;;;;;8.32;84.30;102107.63;5040289;28;20035;-73
2023/05/16 02:46:03;;;;;;;9.43;1.85;;;;;;;8.28;83.90;102114.63;5035937;28;20045;-74
2023/05/16 02:48:29;;;;;;;11.82;1.83;;;;;;;8.28;84.03;102114.63;5028668;28;20051;-74
2023/05/16 02:50:55;;;;;;;6.35;1.40;;;;;;;8.30;84.31;102112.00;5019472;28;20320;-74
2023/05/16 02:53:21;;;;;;;3.47;1.20;;;;;;;8.31;84.12;102109.34;5022672;28;20108;-74
2023/05/16 02:55:47;;;;;;;5.45;1.10;;;;;;;8.32;84.47;102113.72;5039751;28;20206;-74
2023/05/16 02:58:12;;;;;;;2.13;0.85;;;;;;;8.34;84.47;102117.16;5022609;28;20132;-74
2023/05/16 03:00:39;;;;;;;2.58;0.80;;;;;;;8.33;84.33;102112.84;5039892;28;20033;-73
2023/05/16 03:03:04;;;;;;;5.88;1.25;;;;;;;8.34;84.37;102117.16;5039038;28;20228;-74
2023/05/16 03:05:30;;;;;;;5.68;1.02;;;;;;;8.35;84.46;102118.03;5039355;28;20037;-73
2023/05/16 03:07:57;;;;;;;2.85;1.02;;;;;;;8.35;84.46;102115.41;5014149;28;20088;-74
2023/05/16 03:10:23;;;;;;;6.70;1.50;;;;;;;8.35;83.96;102115.41;5002832;28;20044;-74
2023/05/16 03:12:48;;;;;;;4.15;1.10;;;;;;;8.31;84.04;102114.56;5016696;28;20041;-74
2023/05/16 03:15:15;;;;;;;5.78;1.50;;;;;;;8.27;84.21;102129.41;5042188;28;20040;-74
2023/05/16 03:17:41;;;;;;;7.43;1.75;;;;;;;8.22;83.71;102115.56;5041111;28;20047;-74
2023/05/16 03:20:08;;;;;;;6.30;1.15;;;;;;;8.22;83.90;102130.34;5026456;28;20233;-74
2023/05/16 03:22:33;;;;;;;3.33;1.38;;;;;;;8.23;83.95;102127.72;5040289;28;20551;-74
2023/05/16 03:24:59;;;;;;;7.03;1.95;;;;;;;8.23;84.26;102134.69;5041741;28;20048;-74
2023/05/16 03:27:26;;;;;;;2.42;1.05;;;;;;;8.24;84.26;102132.06;5021935;28;20025;-74
2023/05/16 03:29:52;;;;;;;7.10;1.67;;;;;;;8.24;84.50;102141.63;5035962;28;20052;-74
2023/05/16 03:32:18;;;;;;;6.63;1.27;;;;;;;8.23;84.30;102137.31;5059475;28;20048;-74
2023/05/16 03:34:44;;;;;;;9.10;1.45;;;;;;;8.19;84.47;102133.84;5044252;28;20104;-74
2023/05/16 03:37:10;;;;;;;4.15;1.33;;;;;;;8.14;84.03;102134.78;5028233;28;20041;-74
2023/05/16 03:39:36;;;;;;;5.18;1.05;;;;;;;8.16;84.33;102135.63;5035416;28;20276;-74
2023/05/16 03:42:01;;;;;;;2.42;1.17;;;;;;;8.16;84.52;102130.41;5022973;28;20044;-74
2023/05/16 03:44:26;;;;;;;5.38;1.60;;;;;;;8.18;84.38;102145.16;5016153;28;20131;-74
2023/05/16 03:46:54;;;;;;;6.75;1.52;;;;;;;8.15;84.63;102141.72;5059245;28;20029;-74
2023/05/16 03:49:26;;;;;;;7.97;1.50;;;;;;;8.16;84.63;102136.50;5031253;28;20029;-74
2023/05/16 03:51:52;;;;;;;12.20;1.92;;;;;;;8.12;84.52;102145.22;5021782;28;20793;-74
2023/05/16 03:54:18;;;;;;;13.13;2.60;;;;;;;8.10;84.73;102144.38;5029762;28;20126;-74
2023/05/16 03:56:44;;;;;;;2.03;1.00;;;;;;;8.16;84.92;102141.72;5040600;28;20371;-74
2023/05/16 03:59:09;;;;;;;11.63;2.25;;;;;;;8.16;84.77;102138.25;5031753;28;20037;-74
2023/05/16 04:01:35;;;;;;;5.50;1.00;;;;;;;8.17;84.95;102147.81;5053258;28;20067;-74
2023/05/16 04:04:00;;;;;;;10.27;1.73;;;;;;;8.19;84.92;102146.06;5053667;28;20025;-74
2023/05/16 04:06:26;;;;;;;4.70;1.10;;;;;;;8.21;85.06;102146.91;5021034;28;20037;-74
2023/05/16 04:08:52;;;;;;;8.02;1.42;;;;;;;8.20;85.01;102151.22;5023756;28;20510;-74
2023/05/16 04:11:18;;;;;;;10.80;1.70;;;;;;;8.16;84.62;102149.53;5054433;28;20056;-74
2023/05/16 04:13:44;;;;;;;5.13;1.65;;;;;;;8.20;85.05;102151.22;5021926;28;20037;-73
2023/05/16 04:16:10;;;;;;;9.30;2.03;;;;;;;8.17;84.81;102150.41;5041284;28;20137;-74
2023/05/16 04:18:35;;;;;;;4.10;1.45;;;;;;;8.15;85.14;102146.94;5040174;28;20241;-74
2023/05/16 04:21:01;;;;;;;8.10;1.60;;;;;;;8.16;85.30;102146.94;5052911;28;20105;-74
2023/05/16 04:23:27;;;;;;;7.15;1.90;;;;;;;8.18;85.65;102153.00;5023451;28;20022;-74
2023/05/16 04:25:54;;;;;;;3.92;1.35;;;;;;;8.21;85.50;102154.72;5022528;28;20280;-74
2023/05/16 04:28:20;;;;;;;15.23;2.20;;;;;;;8.18;85.38;102163.44;5047938;28;20025;-74
2023/05/16 04:30:46;;;;;;;4.68;1.33;;;;;;;8.23;85.60;102159.03;5044344;28;20052;-74
2023/05/16 04:33:11;;;;;;;6.65;1.50;;;;;;;8.27;85.76;102157.25;5040358;28;20158;-74
2023/05/16 04:35:37;;;;;;;3.97;1.55;;;;;;;8.31;85.74;102161.56;5047752;28;20332;-74
2023/05/16 04:38:03;;;;;;;6.28;2.15;;;;;;;8.33;85.75;102162.44;5055522;28;20081;-74
2023/05/16 04:40:28;;;;;;;4.63;1.20;;;;;;;8.38;85.58;102162.38;5022975;28;20033;-74
2023/05/16 04:42:55;;;;;;;3.53;1.13;;;;;;;8.42;85.70;102166.72;5049521;28;20044;-74
2023/05/16 04:45:20;;;;;;;8.20;1.60;;;;;;;8.40;85.17;102166.72;5020206;28;20333;-74
2023/05/16 04:47:46;;;;;;;4.28;1.17;;;;;;;8.45;85.37;102166.69;5020032;28;20108;-74
2023/05/16 04:50:11;;;;;;;6.45;1.13;;;;;;;8.46;85.63;102176.25;5044968;28;20107;-74
2023/05/16 04:52:37;;;;;;;12.18;1.92;;;;;;;8.45;85.66;102167.53;5049975;28;20032;-74
2023/05/16 04:55:03;;;;;;;3.45;0.93;;;;;;;8.49;85.38;102176.19;5033133;28;20112;-74
2023/05/16 04:57:29;;;;;;;5.65;1.13;;;;;;;8.44;84.44;102176.28;5038364;28;20232;-74
2023/05/16 04:59:55;;;;;;;4.88;0.90;;;;;;;8.46;84.60;102178.88;5023842;28;20112;-74
2023/05/16 05:02:20;;;;;;;4.53;1.33;;;;;;;8.48;85.10;102179.72;5038370;28;20036;-74
2023/05/16 05:04:46;;;;;;;3.30;1.20;;;;;;;8.41;84.04;102183.22;5022351;28;20036;-74
2023/05/16 05:07:12;;;;;;;6.15;1.20;;;;;;;8.46;84.54;102181.47;5031914;28;20068;-74
2023/05/16 05:09:38;;;;;;;2.50;1.05;;;;;;;8.49;84.97;102185.78;5026365;28;20039;-74
2023/05/16 05:12:04;;;;;;;4.57;1.10;;;;;;;8.50;84.50;102192.75;5057960;28;20033;-74
2023/05/16 05:14:30;;;;;;;8.60;1.48;;;;;;;8.52;84.88;102191.00;5029096;28;20021;-74
2023/05/16 05:16:56;;;;;;;3.67;1.40;;;;;;;8.53;84.69;102197.94;5039352;28;20029;-74
2023/05/16 05:19:22;;;;;;;7.88;1.42;;;;;;;8.51;84.27;102192.72;5056818;28;20087;-74
2023/05/16 05:21:47;;;;;;;5.65;1.30;;;;;;;8.58;83.49;102193.53;5024607;28;20072;-73
2023/05/16 05:24:13;;;;;;;11.00;1.23;;;;;;;8.57;82.93;102195.28;5038372;28;20044;-74
2023/05/16 05:26:38;;;;;;;7.13;1.40;;;;;;;8.61;83.33;102198.72;5039067;28;20040;-74
2023/05/16 05:29:04;;;;;;;8.23;1.50;;;;;;;8.62;82.21;102203.94;5020105;28;20041;-74
2023/05/16 05:31:32;;;;;;;7.18;1.55;;;;;;;8.64;81.38;102202.16;5019157;28;20415;-74
2023/05/16 05:33:58;;;;;;;5.47;1.43;;;;;;;8.69;81.34;102206.47;5019693;28;20087;-74
2023/05/16 05:36:23;;;;;;;4.65;1.20;;;;;;;8.74;80.71;102202.94;5029319;28;20256;-74
2023/05/16 05:38:49;;;;;;;13.50;1.58;;;;;;;8.78;80.90;102204.59;5002408;28;20073;-74
2023/05/16 05:41:15;;;;;;;10.93;1.02;;;;;;;8.86;81.16;102208.88;5035259;28;20090;-74
2023/05/16 05:43:41;;;;;;;7.50;1.10;;;;;;;8.89;81.39;102207.09;5056443;28;20059;-74
2023/05/16 05:46:08;;;;;;;6.35;1.63;;;;;;;8.93;80.80;102202.69;5043426;28;20041;-74
2023/05/16 05:48:34;;;;;;;8.73;1.00;;;;;;;8.97;80.77;102207.88;5017247;28;20033;-74
2023/05/16 05:50:59;;;;;;;4.72;1.13;;;;;;;9.00;81.34;102207.88;5029908;28;20036;-74
2023/05/16 05:53:25;;;;;;;5.05;1.08;;;;;;;9.03;81.19;102213.03;5035544;28;20045;-74
2023/05/16 05:55:51;;;;;;;5.03;1.00;;;;;;;9.05;81.07;102210.41;5038427;28;20072;-74
2023/05/16 05:58:17;;;;;;;5.57;1.40;;;;;;;9.09;81.41;102213.84;5045198;28;20049;-73
2023/05/16 06:00:43;;;;;;;7.63;1.25;;;;;;;9.10;81.15;102215.59;5018864;28;20376;-74
2023/05/16 06:03:09;;;;;;;6.47;0.98;;;;;;;9.12;80.44;102224.28;5019473;28;20037;-74
2023/05/16 06:05:35;;;;;;;7.10;1.20;;;;;;;9.09;81.13;102219.06;5018601;28;20044;-74
2023/05/16 06:08:00;;;;;;;9.02;1.10;;;;;;;9.09;81.46;102225.16;5019797;28;20025;-74
2023/05/16 06:10:26;;;;;;;5.88;1.52;;;;;;;9.10;81.15;102228.66;5018586;28;20022;-74
2023/05/16 06:12:52;;;;;;;9.00;1.38;;;;;;;9.12;81.60;102226.88;5022768;28;20053;-74
2023/05/16 06:15:18;;;;;;;6.43;1.92;;;;;;;9.15;82.04;102234.66;5019283;28;20029;-74
2023/05/16 06:17:44;;;;;;;5.00;1.20;;;;;;;9.17;82.11;102225.94;5022414;28;20351;-73
2023/05/16 06:20:10;;;;;;;11.38;1.63;;;;;;;9.23;82.19;102225.00;5019444;28;20029;-74
2023/05/16 06:22:35;;;;;;;4.13;1.10;;;;;;;9.27;81.63;102217.97;5019265;28;20040;-74
2023/05/16 06:25:01;;;;;;;11.20;1.67;;;;;;;9.31;81.18;102220.50;5005504;28;20033;-74
2023/05/16 06:27:27;;;;;;;6.82;1.35;;;;;;;9.32;79.87;102230.09;5041788;28;20075;-74
2023/05/16 06:29:53;;;;;;;6.50;1.10;;;;;;;9.33;79.59;102225.72;5041144;28;20374;-74
2023/05/16 06:32:18;;;;;;;3.85;0.98;;;;;;;9.36;78.74;102234.38;5042346;28;20041;-74
2023/05/16 06:34:44;;;;;;;2.67;1.17;;;;;;;9.37;79.57;102227.44;5043407;28;20112;-74
2023/05/16 06:37:09;;;;;;;13.23;3.83;;;;;;;9.37;78.03;102227.44;5025905;28;20041;-74
2023/05/16 06:39:36;;;;;;;3.80;1.55;;;;;;;9.37;78.28;102233.53;5012699;28;20049;-74
2023/05/16 06:42:01;;;;;;;3.63;0.95;;;;;;;9.38;77.64;102232.63;5020563;28;20033;-74
2023/05/16 06:44:26;;;;;;;4.63;1.20;;;;;;;9.43;77.96;102239.56;5017937;28;20048;-74
2023/05/16 06:46:52;;;;;;;7.10;0.82;;;;;;;9.48;77.78;102230.75;5016686;28;20032;-74
2023/05/16 06:49:17;;;;;;;5.63;1.50;;;;;;;9.48;77.67;102233.38;5015092;28;20325;-74
2023/05/16 06:51:43;;;;;;;2.70;0.93;;;;;;;9.51;78.33;102241.16;5018385;28;20386;-74
2023/05/16 06:54:09;;;;;;;5.90;1.30;;;;;;;9.59;78.32;102241.06;5018682;28;20051;-74
2023/05/16 06:56:34;;;;;;;5.40;1.30;;;;;;;9.68;77.26;102242.66;4982336;28;20040;-74
2023/05/16 06:59:00;;;;;;;10.38;1.40;;;;;;;9.73;75.76;102241.75;5004164;28;20046;-74
2023/05/16 07:01:26;;;;;;;5.28;0.90;;;;;;;9.80;74.62;102245.09;5013297;28;20244;-74
2023/05/16 07:03:52;;;;;;;5.63;1.58;;;;;;;9.84;75.19;102256.41;5017362;28;20036;-74
2023/05/16 07:06:17;;;;;;;6.53;1.10;;;;;;;9.88;75.00;102258.97;5028484;28;20046;-74
2023/05/16 07:08:43;;;;;;;8.95;1.50;;;;;;;9.92;74.93;102262.41;5026348;28;20079;-74
2023/05/16 07:11:10;;;;;;;6.40;1.05;;;;;;;9.94;75.74;102261.47;5023923;28;20041;-74
2023/05/16 07:13:35;;;;;;;6.47;1.33;;;;;;;9.98;75.92;102257.06;5029113;28;20259;-74
2023/05/16 07:16:01;;;;;;;2.78;1.08;;;;;;;10.01;75.76;102261.41;5026311;28;20041;-74
2023/05/16 07:18:26;;;;;;;4.18;1.08;;;;;;;10.06;75.73;102257.81;5024545;28;20061;-74
2023/05/16 07:20:52;;;;;;;7.45;1.75;;;;;;;10.12;76.07;102259.47;5027863;28;20038;-74
2023/05/16 07:23:18;;;;;;;6.68;1.00;;;;;;;10.21;75.43;102279.41;5020351;28;20108;-74
2023/05/16 07:25:43;;;;;;;6.07;1.23;;;;;;;10.25;74.49;102263.59;5024027;28;20044;-74
2023/05/16 07:28:09;;;;;;;5.97;1.20;;;;;;;10.31;74.69;102267.91;5016076;28;20041;-74
2023/05/16 07:30:35;;;;;;;4.68;0.98;;;;;;;10.34;73.90;102271.34;5016538;28;20352;-73
2023/05/16 07:33:00;;;;;;;8.75;2.00;;;;;;;10.38;73.29;102273.00;5018772;28;20037;-74
2023/05/16 07:35:26;;;;;;;3.97;0.70;;;;;;;10.37;72.85;102278.28;5023481;28;20041;-74
2023/05/16 07:37:51;;;;;;;6.43;1.13;;;;;;;10.31;71.94;102274.00;5020844;28;20048;-74
2023/05/16 07:40:17;;;;;;;4.60;0.90;;;;;;;10.35;72.31;102275.69;5000955;28;20054;-74
2023/05/16 07:42:43;;;;;;;6.03;0.60;;;;;;;10.36;70.87;102261.69;5018625;28;20112;-74
2023/05/16 07:45:09;;;;;;;5.45;0.85;;;;;;;10.36;70.87;102266.94;5020013;28;20116;-74
2023/05/16 07:47:34;;;;;;;2.55;0.57;;;;;;;10.42;71.93;102273.81;5019345;28;20356;-74
2023/05/16 07:50:00;;;;;;;9.05;1.27;;;;;;;10.33;71.22;102280.09;5018283;28;20049;-74
2023/05/16 07:52:26;;;;;;;6.38;0.90;;;;;;;10.29;71.49;102277.50;5016493;28;20361;-74
2023/05/16 07:54:51;;;;;;;12.32;1.13;;;;;;;10.31;71.47;102279.22;5018811;28;20045;-74
2023/05/16 07:57:17;;;;;;;8.70;0.98;;;;;;;10.36;71.58;102281.78;5016260;28;20372;-74
2023/05/16 07:59:43;;;;;;;2.97;0.98;;;;;;;10.38;72.40;102282.63;5016980;28;20045;-74
2023/05/16 08:02:10;;;;;;;6.05;1.00;;;;;;;10.37;71.90;102289.63;5018618;28;20029;-74
2023/05/16 08:04:35;;;;;;;5.85;0.90;;;;;;;10.35;71.86;102280.94;5018287;28;20026;-73
2023/05/16 08:07:01;;;;;;;3.90;1.15;;;;;;;10.44;71.03;102279.91;5018653;28;20034;-74
2023/05/16 08:09:26;;;;;;;4.10;0.88;;;;;;;10.50;70.84;102281.56;5020718;28;20355;-74
2023/05/16 08:11:52;;;;;;;1.40;0.60;;;;;;;10.53;70.59;102298.09;5020767;28;20033;-74
2023/05/16 08:14:17;;;;;;;6.80;0.80;;;;;;;10.49;70.71;102291.16;5019197;28;20344;-74
2023/05/16 08:16:43;;;;;;;4.82;1.17;;;;;;;10.51;71.81;102289.41;5017155;28;20359;-74
2023/05/16 08:19:08;;;;;;;4.63;0.90;;;;;;;10.56;70.00;102291.94;5020204;28;20041;-74
2023/05/16 08:21:34;;;;;;;4.10;1.00;;;;;;;10.60;70.64;102290.13;5020590;28;20416;-74
2023/05/16 08:23:59;;;;;;;2.65;1.00;;;;;;;10.68;70.30;102296.97;5018705;28;20414;-74
2023/05/16 08:26:25;;;;;;;4.78;0.95;;;;;;;10.79;70.24;102290.63;5021977;28;20037;-73
2023/05/16 08:28:51;;;;;;;9.38;1.00;;;;;;;10.87;71.18;102289.59;5018688;28;20045;-74
2023/05/16 08:31:16;;;;;;;3.70;0.80;;;;;;;10.87;71.26;102294.84;5028810;28;20398;-74
2023/05/16 08:33:42;;;;;;;2.85;0.65;;;;;;;10.72;70.33;102287.28;5023712;28;20038;-74
2023/05/16 08:36:09;;;;;;;7.00;0.98;;;;;;;10.72;70.38;102292.53;5025025;28;20025;-74
2023/05/16 08:38:34;;;;;;;5.47;1.65;;;;;;;10.66;70.26;102298.75;5024937;28;20344;-74
2023/05/16 08:41:00;;;;;;;3.50;1.10;;;;;;;10.69;71.06;102296.03;5004010;28;20081;-74
2023/05/16 08:43:25;;;;;;;6.93;1.60;;;;;;;10.74;69.98;102304.69;5006595;28;20269;-74
2023/05/16 08:45:50;;;;;;;6.13;0.80;;;;;;;10.81;70.14;102300.22;5009979;28;20042;-74
2023/05/16 08:48:19;;;;;;;2.78;0.80;;;;;;;10.76;68.99;102300.28;5008386;28;20049;-74
2023/05/16 08:50:45;;;;;;;9.73;1.00;;;;;;;10.74;68.93;102295.97;5006980;28;20025;-74
2023/05/16 08:53:14;;;;;;;3.63;0.98;;;;;;;10.81;70.16;102294.13;5009702;28;20102;-74
2023/05/16 08:55:41;;;;;;;6.45;1.35;;;;;;;10.87;69.76;102300.09;5005396;28;20236;-74
2023/05/16 08:58:07;;;;;;;2.35;1.10;;;;;;;10.95;68.88;102297.31;5010295;28;20026;-74
2023/05/16 09:00:34;;;;;;;6.50;1.25;;;;;;;11.01;69.43;102291.97;5010829;28;20309;-74
2023/05/16 09:03:00;;;;;;;3.80;0.80;;;;;;;11.09;67.69;102295.31;5004220;28;20197;-74
2023/05/16 09:05:26;;;;;;;5.75;1.10;;;;;;;11.07;68.63;102309.34;5011593;28;20387;-74
2023/05/16 09:07:52;;;;;;;2.95;0.70;;;;;;;11.12;69.09;102304.88;5008988;28;20812;-74
2023/05/16 09:10:18;;;;;;;7.53;1.92;;;;;;;11.15;68.45;102302.19;5005608;28;20067;-74
2023/05/16 09:12:43;;;;;;;7.65;1.10;;;;;;;11.20;68.92;102300.34;5006465;28;20149;-74
2023/05/16 09:15:10;;;;;;;4.85;1.15;;;;;;;11.17;68.76;102305.66;4999793;28;20037;-74
2023/05/16 09:17:42;;;;;;;5.68;1.13;;;;;;;11.11;68.30;102306.66;5005002;28;20029;-74
2023/05/16 09:20:09;;;;;;;6.50;1.15;;;;;;;11.20;69.34;102310.81;5006863;28;20037;-74
2023/05/16 09:22:34;;;;;;;4.70;0.70;;;;;;;11.25;69.25;102313.38;5004691;28;20300;-74
2023/05/16 09:24:59;;;;;;;2.45;0.57;;;;;;;11.24;68.63;102315.13;5000735;28;20113;-74
2023/05/16 09:27:25;;;;;;;4.55;0.90;;;;;;;11.19;68.72;102323.97;5004683;28;20038;-74
2023/05/16 09:29:51;;;;;;;4.10;0.75;;;;;;;11.23;67.79;102315.16;5002259;28;20042;-74
2023/05/16 09:32:17;;;;;;;5.07;0.70;;;;;;;11.29;67.93;102312.41;5001889;28;20451;-74
2023/05/16 09:34:44;;;;;;;2.92;0.82;;;;;;;11.39;70.28;102308.72;5002134;28;20065;-74
2023/05/16 09:37:11;;;;;;;6.53;0.73;;;;;;;11.37;70.38;102307.88;4997634;28;20591;-74
2023/05/16 09:39:40;;;;;;;5.70;0.88;;;;;;;11.36;69.23;102316.63;5001488;28;20225;-74
2023/05/16 09:42:11;;;;;;;4.47;1.05;;;;;;;11.40;68.32;102309.56;5033635;28;20048;-74
2023/05/16 09:44:37;;;;;;;3.88;0.93;;;;;;;11.48;68.15;102324.25;5024064;28;20348;-74
2023/05/16 09:47:02;;;;;;;3.05;0.55;;;;;;;11.48;65.30;102313.75;5024998;28;20044;-74
2023/05/16 09:49:29;;;;;;;8.35;1.30;;;;;;;11.57;67.29;102320.59;5018287;28;20432;-74
2023/05/16 09:51:55;;;;;;;7.43;1.30;;;;;;;11.63;65.89;102309.09;5022821;28;20329;-74
2023/05/16 09:54:33;;;;;;;4.68;1.02;;;;;;;11.60;66.33;102319.63;5016304;28;20037;-74
2023/05/16 09:57:00;;;;;;;3.03;0.93;;;;;;;11.55;67.11;102317.13;5024055;28;20044;-74
2023/05/16 09:59:36;;;;;;;4.75;1.00;;;;;;;11.59;67.93;102320.53;5019902;28;20025;-74
2023/05/16 10:02:04;;;;;;;6.82;0.77;;;;;;;11.56;67.63;102317.97;5030668;28;20052;-74
2023/05/16 10:04:30;;;;;;;6.97;0.82;;;;;;;11.49;65.87;102325.97;5016719;28;20090;-74
2023/05/16 10:06:59;;;;;;;7.28;0.80;;;;;;;11.49;64.95;102325.97;5023463;28;20104;-74
2023/05/16 10:09:25;;;;;;;;;;;;;;;11.53;64.69;102317.16;5038565;28;20032;-74
2023/05/16 10:11:52;;;;;;;3.42;0.70;;;;;;;11.58;66.83;102324.91;5018376;28;19980;-74
2023/05/16 10:14:19;;;;;;;1.42;0.65;;;;;;;11.58;63.95;102322.28;5018928;28;20117;-74
2023/05/16 10:16:47;;;;;;;3.80;0.77;;;;;;;11.56;64.54;102316.22;5020003;28;20036;-74
2023/05/16 10:19:14;;;;;;;6.20;1.08;;;;;;;11.63;65.79;102312.56;5021844;28;20033;-74
2023/05/16 10:21:45;;;;;;;5.10;1.33;;;;;;;11.74;67.12;102314.97;5020102;28;20095;-74
2023/05/16 10:24:12;;;;;;;8.52;0.70;;;;;;;11.77;65.62;102321.88;5019307;28;20030;-74
2023/05/16 10:26:38;;;;;;;8.20;1.15;;;;;;;11.82;64.25;102325.28;5037162;28;20029;-74
2023/05/16 10:29:04;;;;;;;4.97;0.73;;;;;;;11.87;65.39;102321.66;5039671;28;20375;-74
2023/05/16 10:31:30;;;;;;;8.30;0.90;;;;;;;11.93;65.45;102331.19;5027668;28;20156;-74
2023/05/16 10:33:56;;;;;;;4.72;1.00;;;;;;;11.92;63.50;102310.25;5034510;28;20049;-74
2023/05/16 10:36:23;;;;;;;8.32;1.48;;;;;;;11.94;62.79;102313.69;5018765;28;20042;-74
2023/05/16 10:38:49;;;;;;;5.88;1.33;;;;;;;11.98;65.21;102316.19;5036084;28;20402;-74
2023/05/16 10:41:16;;;;;;;5.68;0.90;;;;;;;12.03;65.28;102316.09;5037847;28;20037;-74
2023/05/16 10:43:45;;;;;;;4.55;1.52;;;;;;;12.05;65.27;102309.91;5017077;28;20037;-74
2023/05/16 10:46:11;;;;;;;3.75;1.10;;;;;;;12.08;65.07;102298.47;5017436;28;20029;-74
2023/05/16 10:48:41;;;;;;;4.03;0.98;;;;;;;12.08;65.58;102319.50;5016340;28;20036;-74
2023/05/16 10:51:22;;;;;;;3.42;0.70;;;;;;;12.08;62.01;102304.59;5000955;28;20233;-74
2023/05/16 10:53:51;;;;;;;3.75;0.60;;;;;;;12.12;63.50;102299.28;5034696;28;20232;-74
2023/05/16 10:56:22;;;;;;;5.47;0.75;;;;;;;12.16;64.55;102303.53;5034835;28;20341;-74
2023/05/16 10:58:48;;;;;;;3.80;1.00;;;;;;;12.20;65.42;102308.66;5034751;28;20362;-74
2023/05/16 11:01:25;;;;;;;4.68;0.80;;;;;;;12.31;66.30;102303.16;5017486;28;20076;-74
2023/05/16 11:04:03;;;;;;;4.97;0.98;;;;;;;12.35;65.35;102311.81;5017872;28;20345;-74
2023/05/16 11:06:30;;;;;;;7.22;0.88;;;;;;;12.36;62.56;102300.44;5016191;28;20088;-74
2023/05/16 11:09:10;;;;;;;3.25;0.88;;;;;;;12.39;64.65;102303.84;5015016;28;20037;-74
2023/05/16 11:11:46;;;;;;;4.80;0.90;;;;;;;12.35;65.02;102309.19;5019742;28;20530;-74
2023/05/16 11:14:37;;;;;;;4.95;0.88;;;;;;;12.25;65.30;102308.56;5036580;28;20041;-74
2023/05/16 11:17:11;;;;;;;3.47;0.63;;;;;;;12.26;63.80;102305.03;5020965;28;20118;-74
2023/05/16 11:20:04;;;;;;;4.50;0.68;;;;;;;12.28;62.43;102308.50;5040562;28;20033;-74
2023/05/16 11:22:39;;;;;;;4.53;1.25;;;;;;;12.26;63.01;102312.91;5021160;28;20041;-74
2023/05/16 11:25:07;;;;;;;3.33;0.88;;;;;;;12.31;61.35;102307.56;5020994;28;20452;-74
2023/05/16 11:27:42;;;;;;;4.75;0.88;;;;;;;12.35;61.60;102311.81;5036460;28;20032;-75
2023/05/16 11:30:16;;;;;;;4.18;0.98;;;;;;;12.38;63.42;102309.13;5025790;28;20033;-74
2023/05/16 11:32:43;;;;;;;2.20;0.80;;;;;;;12.44;61.69;102320.38;5024366;28;20040;-74